Time;durP1;ratioP1;P1;durP2;ratioP2;P2;SDS_P1;SDS_P2;PMS_P1;PMS_P2;Temp;Humidity;BMP_temperature;BMP_pressure;BME280_temperature;BME280_humidity;BME280_pressure;Samples;Min_cycle;Max_cycle;Signal;HPM_P1;HPM_P2
2022/04/26 03:38:09;;;;;;;13.88;6.50;;;6.30;99.90;;;;;;5101003;28;20054;-75
2022/04/26 03:40:35;;;;;;;13.82;6.38;;;6.30;99.90;;;;;;5098537;28;20055;-75
2022/04/26 03:43:02;;;;;;;13.15;6.25;;;6.30;99.90;;;;;;5097707;28;20039;-74
2022/04/26 03:45:28;;;;;;;15.70;6.55;;;6.40;99.90;;;;;;5116226;28;20046;-74
2022/04/26 03:47:53;;;;;;;14.77;6.57;;;6.30;99.90;;;;;;5097598;28;20040;-75
2022/04/26 03:50:19;;;;;;;14.18;6.45;;;6.30;99.90;;;;;;5081085;28;20108;-75
2022/04/26 03:52:45;;;;;;;15.02;6.35;;;6.40;99.90;;;;;;5097449;28;20078;-75
2022/04/26 03:55:10;;;;;;;16.65;7.28;;;6.30;99.90;;;;;;5081232;28;20040;-75
2022/04/26 03:57:36;;;;;;;18.00;7.13;;;6.30;99.90;;;;;;5115945;28;20044;-75
2022/04/26 04:00:02;;;;;;;11.57;6.03;;;6.40;99.90;;;;;;5097394;28;20036;-75
2022/04/26 04:02:28;;;;;;;13.73;5.72;;;6.40;99.90;;;;;;5064277;28;20482;-75
2022/04/26 04:04:54;;;;;;;15.00;6.22;;;6.30;99.90;;;;;;5115436;28;20035;-75
2022/04/26 04:07:19;;;;;;;15.52;6.55;;;6.30;99.90;;;;;;5115878;28;20043;-75
2022/04/26 04:09:45;;;;;;;13.65;5.70;;;6.30;99.90;;;;;;5097573;28;20043;-75
2022/04/26 04:12:11;;;;;;;11.52;6.03;;;6.20;99.90;;;;;;5114297;28;20044;-75
2022/04/26 04:14:37;;;;;;;16.17;6.00;;;6.30;99.90;;;;;;5115332;28;20551;-74
2022/04/26 04:17:03;;;;;;;14.13;6.05;;;6.30;99.90;;;;;;5096776;28;20066;-76
2022/04/26 04:19:30;;;;;;;12.73;6.03;;;6.30;99.90;;;;;;5097525;28;20050;-74
2022/04/26 04:21:55;;;;;;;15.73;6.28;;;6.30;99.90;;;;;;5115045;28;20039;-75
2022/04/26 04:24:21;;;;;;;13.63;6.18;;;6.20;99.90;;;;;;5097485;28;20035;-75
2022/04/26 04:26:47;;;;;;;12.18;6.28;;;6.30;99.90;;;;;;5115283;28;20370;-74
2022/04/26 04:29:12;;;;;;;14.38;6.28;;;6.20;99.90;;;;;;5114793;28;20540;-74
2022/04/26 04:31:38;;;;;;;15.30;6.32;;;6.20;99.90;;;;;;5114804;28;20031;-81
2022/04/26 04:34:04;;;;;;;17.73;6.28;;;6.20;99.90;;;;;;5063470;28;20059;-74
2022/04/26 04:36:29;;;;;;;10.90;5.95;;;6.20;99.90;;;;;;5097116;28;20039;-74
2022/04/26 04:38:58;;;;;;;12.98;6.32;;;6.30;99.90;;;;;;5079594;28;20077;-75
2022/04/26 04:41:24;;;;;;;14.25;6.28;;;6.30;99.90;;;;;;5115389;28;20047;-75
2022/04/26 04:43:50;;;;;;;14.10;5.85;;;6.30;99.90;;;;;;5115026;28;20031;-76
2022/04/26 04:46:15;;;;;;;12.02;6.13;;;6.30;99.90;;;;;;5096249;28;20043;-75
2022/04/26 04:48:41;;;;;;;16.60;7.53;;;6.40;99.90;;;;;;5096325;28;20100;-76
2022/04/26 04:51:07;;;;;;;15.18;6.88;;;6.40;99.90;;;;;;5114402;28;20035;-75
2022/04/26 04:53:33;;;;;;;16.25;6.57;;;6.40;99.90;;;;;;5114788;28;20360;-76
2022/04/26 04:55:59;;;;;;;12.88;6.88;;;6.40;99.90;;;;;;5079412;28;20043;-75
2022/04/26 04:58:25;;;;;;;16.20;6.57;;;6.50;99.90;;;;;;5114721;28;20118;-75
2022/04/26 05:00:51;;;;;;;14.20;7.05;;;6.50;99.90;;;;;;5114619;28;20083;-75
2022/04/26 05:03:17;;;;;;;19.55;7.38;;;6.60;99.90;;;;;;5096329;28;20044;-75
2022/04/26 05:05:42;;;;;;;15.25;7.47;;;6.60;99.90;;;;;;5096504;28;20383;-75
2022/04/26 05:08:11;;;;;;;14.77;6.70;;;6.60;99.90;;;;;;5114063;28;20040;-75
2022/04/26 05:10:37;;;;;;;16.42;7.20;;;6.70;99.90;;;;;;5096206;28;20038;-75
2022/04/26 05:13:04;;;;;;;14.02;7.55;;;6.70;99.90;;;;;;5079015;28;20483;-75
2022/04/26 05:15:30;;;;;;;11.45;6.55;;;6.70;99.90;;;;;;5114463;28;20039;-75
2022/04/26 05:17:56;;;;;;;13.60;7.18;;;6.80;99.90;;;;;;5062488;28;20051;-74
2022/04/26 05:20:22;;;;;;;11.98;6.70;;;6.80;99.90;;;;;;5096314;28;20125;-75
2022/04/26 05:25:37;;;;;;;12.80;6.43;;;6.90;99.90;;;;;;5114277;28;20047;-75
2022/04/26 05:28:03;;;;;;;;;;;6.90;99.90;;;;;;5079536;28;20051;-76
2022/04/26 05:30:28;;;;;;;16.20;6.97;;;6.90;99.90;;;;;;5114397;28;20237;-74
2022/04/26 05:32:54;;;;;;;19.92;7.38;;;7.00;99.90;;;;;;5096067;28;20046;-74
2022/04/26 05:35:21;;;;;;;13.52;6.63;;;7.10;99.90;;;;;;5113691;28;20052;-74
2022/04/26 05:37:46;;;;;;;14.70;6.50;;;7.20;99.90;;;;;;5095767;28;20481;-75
2022/04/26 05:40:12;;;;;;;15.88;6.80;;;7.10;99.90;;;;;;5078752;28;20050;-75
2022/04/26 05:42:38;;;;;;;20.20;6.53;;;7.20;99.90;;;;;;5113803;28;20054;-75
2022/04/26 05:45:04;;;;;;;16.90;6.30;;;7.20;99.90;;;;;;5113430;28;20079;-74
2022/04/26 05:47:29;;;;;;;12.18;6.18;;;7.20;99.90;;;;;;5113834;28;20039;-75
2022/04/26 05:49:56;;;;;;;17.35;6.47;;;7.30;99.90;;;;;;5095707;28;20046;-75
2022/04/26 05:52:21;;;;;;;11.57;6.18;;;7.30;99.90;;;;;;5113337;28;20506;-74
2022/04/26 05:54:47;;;;;;;14.25;5.97;;;7.20;99.90;;;;;;5095642;28;20079;-75
2022/04/26 05:57:13;;;;;;;15.00;6.82;;;7.20;99.90;;;;;;5095357;28;20054;-75
2022/04/26 05:59:39;;;;;;;11.93;6.07;;;7.20;99.90;;;;;;5095718;28;20085;-74
2022/04/26 06:02:05;;;;;;;14.38;6.10;;;7.20;99.90;;;;;;5095192;28;20417;-75
2022/04/26 06:04:30;;;;;;;11.50;5.60;;;7.20;99.90;;;;;;5095465;28;20478;-74
2022/04/26 06:06:56;;;;;;;10.32;5.43;;;7.30;99.90;;;;;;5113648;28;20122;-74
2022/04/26 06:09:21;;;;;;;17.23;6.18;;;7.20;99.90;;;;;;5095026;28;20040;-74
2022/04/26 06:11:47;;;;;;;12.82;5.53;;;7.30;99.90;;;;;;5078662;28;20147;-74
2022/04/26 06:14:14;;;;;;;11.27;5.50;;;7.30;99.90;;;;;;5113026;28;20443;-74
2022/04/26 06:16:40;;;;;;;9.40;5.10;;;7.30;99.90;;;;;;5113075;28;20055;-75
2022/04/26 06:19:05;;;;;;;13.95;5.13;;;7.40;99.90;;;;;;5094701;28;20522;-78
2022/04/26 06:21:31;;;;;;;15.98;5.55;;;7.40;99.90;;;;;;5095457;28;20047;-74
2022/04/26 06:23:56;;;;;;;10.18;4.85;;;7.40;99.90;;;;;;5112133;28;20081;-74
2022/04/26 06:26:22;;;;;;;10.90;4.47;;;7.50;99.90;;;;;;5094977;28;20042;-74
2022/04/26 06:28:48;;;;;;;11.35;4.82;;;7.50;99.90;;;;;;5113219;28;20039;-75
2022/04/26 06:31:13;;;;;;;13.90;5.57;;;7.60;99.90;;;;;;5094913;28;20047;-74
2022/04/26 06:33:39;;;;;;;9.52;4.68;;;7.60;99.90;;;;;;5094757;28;20403;-75
2022/04/26 06:36:05;;;;;;;11.82;4.65;;;7.70;99.90;;;;;;5094822;28;20122;-75
2022/04/26 06:38:31;;;;;;;9.15;4.40;;;7.80;99.90;;;;;;5077878;28;20078;-74
2022/04/26 06:40:56;;;;;;;12.63;4.15;;;7.90;99.90;;;;;;5113057;28;20375;-75
2022/04/26 06:43:22;;;;;;;10.68;3.88;;;7.90;99.90;;;;;;5112748;28;20051;-74
2022/04/26 06:45:47;;;;;;;11.80;3.80;;;8.00;99.90;;;;;;5095179;28;20043;-75
2022/04/26 06:48:14;;;;;;;9.65;3.60;;;8.10;99.90;;;;;;5077822;28;20096;-75
2022/04/26 06:50:40;;;;;;;12.13;4.10;;;8.20;99.90;;;;;;5061490;28;20043;-75
2022/04/26 06:53:06;;;;;;;9.93;3.75;;;8.20;99.90;;;;;;5078284;28;20077;-75
2022/04/26 06:55:31;;;;;;;8.25;4.35;;;8.30;99.90;;;;;;5077667;28;20442;-75
2022/04/26 06:57:57;;;;;;;8.40;4.00;;;8.40;99.90;;;;;;5113058;28;20060;-75
2022/04/26 07:00:23;;;;;;;9.80;4.15;;;8.50;99.90;;;;;;5112418;28;20038;-75
2022/04/26 07:02:48;;;;;;;10.50;4.05;;;8.50;99.90;;;;;;5095079;28;20118;-74
2022/04/26 07:05:14;;;;;;;10.00;3.90;;;8.70;99.90;;;;;;5094584;28;20120;-74
2022/04/26 07:07:40;;;;;;;8.05;3.80;;;8.70;99.90;;;;;;5094731;28;20043;-74
2022/04/26 07:10:06;;;;;;;9.35;4.00;;;8.80;99.90;;;;;;5077958;28;20043;-74
2022/04/26 07:12:32;;;;;;;10.55;3.65;;;8.80;99.90;;;;;;5094167;28;20047;-75
2022/04/26 07:14:58;;;;;;;7.55;3.17;;;8.80;99.90;;;;;;5095026;28;20035;-74
2022/04/26 07:17:24;;;;;;;8.88;3.70;;;8.70;99.90;;;;;;5110910;28;20442;-74
2022/04/26 07:19:49;;;;;;;14.48;3.72;;;8.70;99.90;;;;;;5094717;28;20438;-74
2022/04/26 07:22:15;;;;;;;10.15;3.65;;;8.60;99.90;;;;;;5094078;28;20131;-74
2022/04/26 07:24:41;;;;;;;10.80;4.20;;;8.70;99.90;;;;;;5112589;28;20046;-74
2022/04/26 07:27:06;;;;;;;8.68;3.33;;;8.70;99.90;;;;;;5112643;28;20410;-74
2022/04/26 07:29:32;;;;;;;12.75;3.50;;;8.70;99.90;;;;;;5112144;28;20085;-75
2022/04/26 07:31:58;;;;;;;9.18;3.33;;;8.70;99.90;;;;;;5112630;28;20464;-74
2022/04/26 07:34:25;;;;;;;7.63;3.42;;;8.70;99.90;;;;;;5112170;28;20035;-74
2022/04/26 07:37:02;;;;;;;8.73;3.50;;;8.80;99.90;;;;;;5094576;28;20043;-74
2022/04/26 07:39:29;;;;;;;7.25;3.33;;;9.00;99.90;;;;;;5078761;28;20036;-74
2022/04/26 07:41:55;;;;;;;8.82;3.65;;;9.00;99.90;;;;;;5112578;28;20370;-74
2022/04/26 07:44:20;;;;;;;7.78;3.40;;;9.10;99.90;;;;;;5094028;28;20043;-74
2022/04/26 07:46:47;;;;;;;8.95;3.42;;;9.10;99.90;;;;;;5115350;28;20036;-74
2022/04/26 07:49:12;;;;;;;9.27;3.58;;;9.20;99.90;;;;;;5116124;28;20046;-74
2022/04/26 07:51:38;;;;;;;8.98;3.55;;;9.30;99.90;;;;;;5097665;28;20052;-74
2022/04/26 07:54:05;;;;;;;7.63;3.33;;;9.30;99.90;;;;;;5116048;28;20046;-74
2022/04/26 07:56:31;;;;;;;9.63;3.60;;;9.40;99.90;;;;;;5115607;28;20066;-76
2022/04/26 07:58:58;;;;;;;7.13;3.53;;;9.40;99.90;;;;;;5097703;28;20530;-74
2022/04/26 08:01:26;;;;;;;8.93;3.42;;;9.60;99.90;;;;;;5097497;28;20082;-74
2022/04/26 08:03:52;;;;;;;8.63;3.20;;;9.60;99.90;;;;;;5064351;28;20048;-74
2022/04/26 08:06:18;;;;;;;7.38;3.45;;;9.70;99.90;;;;;;5097808;28;20146;-74
2022/04/26 08:08:44;;;;;;;9.00;3.33;;;9.70;99.90;;;;;;5115139;28;20436;-74
2022/04/26 08:11:13;;;;;;;11.00;3.60;;;9.60;99.90;;;;;;5118087;27;20078;-74
2022/04/26 08:13:42;;;;;;;7.40;3.22;;;9.60;99.90;;;;;;5080028;28;20042;-73
2022/04/26 08:16:08;;;;;;;6.38;3.00;;;9.70;99.90;;;;;;5080422;28;20476;-73
2022/04/26 08:18:34;;;;;;;4.72;3.00;;;9.70;99.90;;;;;;5115057;28;20063;-74
2022/04/26 08:20:59;;;;;;;6.90;3.15;;;9.80;99.90;;;;;;5115617;28;20052;-73
2022/04/26 08:23:25;;;;;;;5.95;2.90;;;9.90;99.70;;;;;;5096880;28;20043;-74
2022/04/26 08:28:35;;;;;;;9.00;3.15;;;10.00;99.50;;;;;;5099477;28;20070;-74
2022/04/26 08:31:00;;;;;;;7.72;2.90;;;10.00;98.30;;;;;;5115309;28;20488;-78
2022/04/26 08:33:30;;;;;;;11.13;3.05;;;10.00;97.90;;;;;;5080012;28;20096;-75
2022/04/26 08:35:56;;;;;;;6.30;2.90;;;9.90;97.00;;;;;;5097174;28;20059;-74
2022/04/26 08:38:21;;;;;;;8.88;3.05;;;9.80;97.20;;;;;;5115165;28;20039;-74
2022/04/26 08:40:47;;;;;;;8.38;2.95;;;9.80;97.80;;;;;;5079853;28;20074;-74
2022/04/26 08:43:13;;;;;;;7.13;3.00;;;9.80;97.30;;;;;;5063543;28;20153;-76
2022/04/26 08:45:39;;;;;;;7.28;3.00;;;9.80;97.00;;;;;;5079778;28;20092;-76
2022/04/26 08:51:05;;;;;;;6.22;3.08;;;10.10;96.90;;;;;;5099523;28;20040;-74
2022/04/26 08:53:32;;;;;;;6.47;3.17;;;10.20;97.10;;;;;;5098131;28;20047;-75
2022/04/26 08:56:03;;;;;;;6.32;3.10;;;10.40;97.30;;;;;;5114850;28;20047;-75
2022/04/26 08:58:31;;;;;;;;;;;10.50;96.60;;;;;;5079847;28;20077;-75
2022/04/26 09:01:19;;;;;;;7.18;3.13;;;10.70;97.60;;;;;;5114745;28;19919;-74
2022/04/26 09:03:54;;;;;;;7.32;2.70;;;10.60;95.40;;;;;;5114235;28;20051;-74
2022/04/26 09:06:21;;;;;;;5.38;2.60;;;10.50;95.30;;;;;;5114897;28;20063;-74
2022/04/26 09:08:48;;;;;;;6.70;2.50;;;10.40;95.00;;;;;;5079087;28;20488;-75
2022/04/26 09:11:34;;;;;;;6.65;3.00;;;10.30;95.00;;;;;;5063092;28;20047;-73
2022/04/26 09:14:00;;;;;;;6.93;3.00;;;10.20;95.50;;;;;;5063786;28;20089;-75
2022/04/26 09:16:26;;;;;;;7.53;2.63;;;10.20;96.00;;;;;;5062728;28;20056;-75
2022/04/26 09:18:53;;;;;;;8.40;2.92;;;10.20;96.00;;;;;;5079169;28;20120;-75
2022/04/26 09:21:19;;;;;;;6.05;2.45;;;10.30;95.80;;;;;;5095814;28;20134;-74
2022/04/26 09:23:46;;;;;;;6.70;2.60;;;10.40;95.40;;;;;;5078943;28;20127;-74
2022/04/26 09:26:13;;;;;;;6.50;2.63;;;10.50;95.60;;;;;;5114070;28;20047;-74
2022/04/26 09:28:45;;;;;;;7.03;2.80;;;10.60;95.90;;;;;;5078651;28;20090;-74
2022/04/26 09:31:18;;;;;;;5.28;2.88;;;10.70;95.20;;;;;;5095972;28;20046;-74
2022/04/26 09:33:47;;;;;;;9.48;2.42;;;10.70;94.50;;;;;;5095611;28;20492;-74
2022/04/26 09:36:13;;;;;;;4.72;2.25;;;10.60;94.60;;;;;;5114025;28;20044;-74
2022/04/26 09:38:41;;;;;;;6.32;2.80;;;10.60;94.50;;;;;;5113520;28;20047;-74
2022/04/26 09:41:11;;;;;;;7.70;3.15;;;10.60;94.80;;;;;;5113900;28;20126;-74
2022/04/26 09:43:37;;;;;;;6.50;2.78;;;10.60;95.00;;;;;;5095332;28;20180;-74
2022/04/26 09:46:04;;;;;;;6.45;2.50;;;10.70;95.60;;;;;;5113795;28;20051;-74
2022/04/26 09:48:32;;;;;;;6.80;2.45;;;10.80;94.30;;;;;;5079108;28;20067;-74
2022/04/26 09:50:58;;;;;;;6.07;2.50;;;10.90;93.70;;;;;;5113280;28;20131;-74
2022/04/26 09:53:25;;;;;;;6.70;2.60;;;11.10;92.60;;;;;;5096033;28;20136;-73
2022/04/26 09:55:54;;;;;;;8.35;2.63;;;11.20;92.10;;;;;;5079012;28;20048;-80
2022/04/26 09:58:20;;;;;;;6.85;2.40;;;11.30;92.40;;;;;;5095983;28;20042;-78
2022/04/26 10:00:48;;;;;;;9.77;3.00;;;11.30;91.70;;;;;;5095619;28;20377;-78
2022/04/26 10:03:25;;;;;;;5.18;2.33;;;11.30;91.20;;;;;;5079747;28;20047;-80
2022/04/26 10:06:00;;;;;;;6.60;2.88;;;11.50;90.60;;;;;;5078467;28;20047;-76
2022/04/26 10:08:30;;;;;;;7.63;2.78;;;11.50;91.10;;;;;;5080502;28;20441;-76
2022/04/26 10:11:00;;;;;;;5.97;2.60;;;11.60;90.70;;;;;;5078100;28;20048;-75
2022/04/26 10:13:31;;;;;;;6.13;2.70;;;11.70;89.90;;;;;;5079163;28;20085;-75
2022/04/26 10:16:05;;;;;;;5.43;2.63;;;11.90;90.20;;;;;;5096033;28;20081;-77
2022/04/26 10:18:38;;;;;;;8.48;3.05;;;12.00;88.20;;;;;;5079236;28;20056;-74
2022/04/26 10:21:04;;;;;;;7.32;2.63;;;12.10;89.00;;;;;;5095627;28;20172;-75
2022/04/26 10:23:52;;;;;;;9.05;3.15;;;12.20;89.50;;;;;;5078672;28;20052;-75
2022/04/26 10:29:02;;;;;;;4.60;2.50;;;11.80;90.00;;;;;;5132832;27;20116;-73
2022/04/26 10:31:38;;;;;;;7.28;2.50;;;11.70;89.60;;;;;;5115028;28;20074;-73
2022/04/26 10:34:36;;;;;;;5.85;2.58;;;11.60;89.00;;;;;;5089028;28;20051;-73
2022/04/26 10:37:08;;;;;;;6.07;2.67;;;11.70;85.80;;;;;;5067653;28;20080;-74
2022/04/26 10:39:37;;;;;;;8.15;3.00;;;11.80;88.30;;;;;;5123981;28;20096;-73
2022/04/26 10:42:15;;;;;;;5.90;2.73;;;12.00;88.70;;;;;;5132548;28;20108;-74
2022/04/26 10:44:42;;;;;;;6.85;2.40;;;12.10;86.50;;;;;;5114834;28;20039;-79
2022/04/26 10:47:08;;;;;;;9.13;2.63;;;12.10;85.10;;;;;;5115437;28;20039;-73
2022/04/26 10:49:40;;;;;;;7.00;2.90;;;12.00;84.60;;;;;;5128330;28;20463;-73
2022/04/26 10:52:14;;;;;;;4.40;2.80;;;12.20;84.90;;;;;;5124785;28;20046;-73
2022/04/26 10:54:49;;;;;;;4.80;2.70;;;12.30;86.70;;;;;;5133536;28;20052;-73
2022/04/26 10:57:15;;;;;;;6.07;2.80;;;12.20;82.10;;;;;;5112882;28;20050;-73
2022/04/26 10:59:41;;;;;;;4.90;2.67;;;12.10;84.80;;;;;;5094915;28;20035;-73
2022/04/26 11:02:13;;;;;;;5.35;2.60;;;11.90;84.80;;;;;;5112291;28;20373;-73
2022/04/26 11:04:38;;;;;;;6.15;2.40;;;11.90;82.20;;;;;;5094804;28;20058;-73
2022/04/26 11:07:14;;;;;;;5.43;2.65;;;12.00;84.70;;;;;;5113719;28;20377;-73
2022/04/26 11:09:49;;;;;;;5.30;2.70;;;12.00;82.50;;;;;;5126465;28;20051;-73
2022/04/26 11:12:18;;;;;;;6.43;3.10;;;12.10;82.60;;;;;;5098222;28;20472;-73
2022/04/26 11:14:45;;;;;;;5.38;2.70;;;12.10;82.50;;;;;;5105436;28;20118;-73
2022/04/26 11:17:11;;;;;;;4.65;2.45;;;12.00;83.30;;;;;;5083674;28;20507;-72
2022/04/26 11:19:40;;;;;;;6.88;2.60;;;12.10;79.90;;;;;;5115293;28;20047;-72
2022/04/26 11:22:06;;;;;;;4.65;2.60;;;12.10;78.10;;;;;;5080047;27;20417;-73
2022/04/26 11:30:02;;;;;;;6.05;2.42;;;12.10;78.40;;;;;;5136616;27;20039;-75
2022/04/26 11:32:31;;;;;;;4.50;2.80;;;12.10;78.00;;;;;;5118975;27;20062;-72
2022/04/26 11:34:57;;;;;;;2.90;2.17;;;12.20;77.60;;;;;;5101401;27;20042;-72
2022/04/26 11:37:23;;;;;;;8.50;2.65;;;12.20;78.90;;;;;;5137013;27;20069;-72
2022/04/26 11:39:49;;;;;;;6.53;2.45;;;12.30;79.70;;;;;;5136842;27;20047;-73
2022/04/26 11:42:14;;;;;;;4.60;2.50;;;12.30;77.40;;;;;;5118707;27;20077;-73
2022/04/26 11:45:00;;;;;;;5.47;2.25;;;12.20;75.50;;;;;;5136671;27;20429;-73
2022/04/26 11:47:48;;;;;;;6.75;2.80;;;12.10;73.10;;;;;;5118551;27;20047;-73
2022/04/26 11:50:15;;;;;;;9.10;2.90;;;12.10;74.30;;;;;;5117476;27;20051;-72
2022/04/26 11:52:43;;;;;;;6.75;2.95;;;12.20;75.70;;;;;;5118517;27;20046;-73
2022/04/26 11:55:23;;;;;;;4.85;2.60;;;12.30;75.70;;;;;;5136117;27;20398;-73
2022/04/26 11:57:49;;;;;;;10.95;2.53;;;12.40;70.20;;;;;;5119454;27;20092;-73
2022/04/26 12:00:16;;;;;;;11.10;2.63;;;12.30;75.30;;;;;;5135987;27;20039;-73
2022/04/26 12:02:42;;;;;;;5.20;2.20;;;12.30;74.40;;;;;;5136523;27;20088;-73
2022/04/26 12:05:08;;;;;;;6.93;2.70;;;12.30;73.80;;;;;;5100855;27;20051;-72
2022/04/26 12:07:34;;;;;;;5.22;2.38;;;12.30;75.80;;;;;;5084182;27;20108;-73
2022/04/26 12:10:00;;;;;;;5.25;2.60;;;12.50;75.90;;;;;;5100484;27;20043;-72
2022/04/26 12:12:27;;;;;;;4.45;2.60;;;12.60;74.10;;;;;;5117853;27;20135;-72
2022/04/26 12:14:52;;;;;;;7.55;2.88;;;12.60;72.40;;;;;;5117701;27;20047;-72
2022/04/26 12:17:18;;;;;;;7.00;2.90;;;12.60;70.60;;;;;;5080046;28;20135;-72
2022/04/26 12:19:50;;;;;;;10.00;2.65;;;12.60;72.80;;;;;;5115423;28;20384;-73
2022/04/26 12:22:15;;;;;;;4.95;2.28;;;12.60;72.90;;;;;;5081374;28;20090;-72
2022/04/26 12:24:48;;;;;;;5.07;2.30;;;12.60;71.80;;;;;;5114024;28;20083;-72
2022/04/26 12:27:15;;;;;;;4.85;2.53;;;12.70;71.00;;;;;;5113553;28;20098;-72
2022/04/26 12:29:42;;;;;;;6.15;3.22;;;12.70;70.90;;;;;;5115137;28;20042;-73
2022/04/26 12:32:18;;;;;;;4.32;2.40;;;12.80;71.50;;;;;;5113617;28;20066;-73
2022/04/26 12:35:02;;;;;;;4.28;2.60;;;12.90;70.00;;;;;;5097402;28;20102;-72
2022/04/26 12:37:29;;;;;;;6.13;2.70;;;12.80;69.30;;;;;;5114092;28;20082;-72
2022/04/26 12:39:58;;;;;;;5.95;2.63;;;12.80;70.90;;;;;;5113932;28;20392;-72
2022/04/26 12:42:27;;;;;;;4.85;2.50;;;12.80;68.70;;;;;;5113695;28;20499;-72
2022/04/26 12:45:01;;;;;;;6.45;2.75;;;12.90;69.00;;;;;;5115041;28;20499;-72
2022/04/26 12:50:28;;;;;;;10.45;2.58;;;12.90;68.90;;;;;;5113131;28;20142;-72
2022/04/26 12:53:19;;;;;;;4.57;2.45;;;12.80;68.30;;;;;;5098803;28;20093;-73
2022/04/26 12:55:45;;;;;;;5.40;2.72;;;13.00;68.80;;;;;;5113269;28;20514;-73
2022/04/26 12:58:12;;;;;;;4.45;2.30;;;13.20;69.10;;;;;;5114116;28;20039;-73
2022/04/26 13:00:43;;;;;;;7.47;2.63;;;13.30;68.60;;;;;;5113074;28;20495;-73
2022/04/26 13:03:08;;;;;;;;;;;13.40;69.60;;;;;;5112980;28;20507;-72
2022/04/26 13:05:40;;;;;;;7.53;2.47;;;13.30;64.80;;;;;;5113114;28;19920;-72
2022/04/26 13:08:06;;;;;;;4.10;2.53;;;13.20;68.80;;;;;;5112988;28;20073;-72
2022/04/26 13:10:31;;;;;;;8.05;2.42;;;13.20;68.10;;;;;;5113165;28;20418;-74
2022/04/26 13:12:57;;;;;;;4.63;2.50;;;13.20;67.80;;;;;;5114434;28;20054;-72
2022/04/26 13:15:24;;;;;;;7.25;2.72;;;13.30;68.50;;;;;;5113744;28;20093;-73
2022/04/26 13:17:50;;;;;;;3.95;2.40;;;13.30;67.50;;;;;;5131049;27;20142;-72
2022/04/26 13:20:15;;;;;;;4.13;2.15;;;13.30;66.40;;;;;;5099249;27;20130;-72
2022/04/26 13:22:41;;;;;;;5.50;2.58;;;13.10;66.30;;;;;;5116456;27;20043;-72
2022/04/26 13:25:08;;;;;;;3.50;2.40;;;13.00;65.90;;;;;;5099086;27;20058;-73
2022/04/26 13:27:34;;;;;;;6.13;2.85;;;13.00;67.20;;;;;;5134746;27;20062;-73
2022/04/26 13:30:00;;;;;;;3.92;2.40;;;13.10;68.20;;;;;;5099293;27;20095;-73
2022/04/26 13:32:27;;;;;;;6.57;2.55;;;13.20;70.10;;;;;;5134062;27;20043;-72
2022/04/26 13:34:53;;;;;;;4.10;2.40;;;13.30;69.10;;;;;;5116469;27;20500;-73
2022/04/26 13:37:19;;;;;;;4.38;2.45;;;13.30;69.50;;;;;;5134039;27;20181;-73
2022/04/26 13:39:45;;;;;;;6.28;2.53;;;13.30;68.80;;;;;;5133296;27;20078;-73
2022/04/26 13:42:14;;;;;;;4.93;2.33;;;13.30;67.10;;;;;;5094903;28;20140;-73
2022/04/26 13:44:41;;;;;;;4.43;2.55;;;13.30;65.50;;;;;;5095803;28;20055;-73
2022/04/26 13:47:08;;;;;;;4.72;2.50;;;13.30;64.50;;;;;;5095314;28;20083;-80
2022/04/26 13:49:34;;;;;;;4.25;2.30;;;13.40;64.00;;;;;;5113557;28;20039;-73
2022/04/26 13:52:03;;;;;;;3.97;2.40;;;13.50;64.40;;;;;;5095452;28;20058;-72
2022/04/26 13:54:29;;;;;;;5.18;2.47;;;13.50;62.30;;;;;;5078291;28;20047;-72
2022/04/26 13:56:55;;;;;;;4.63;2.42;;;13.50;62.60;;;;;;5113472;28;20131;-72
2022/04/26 13:59:24;;;;;;;7.10;2.35;;;13.50;65.30;;;;;;5094954;28;20463;-73
2022/04/26 14:01:51;;;;;;;7.00;2.47;;;13.70;66.00;;;;;;5079037;28;20048;-73
2022/04/26 14:04:17;;;;;;;4.05;2.08;;;13.70;65.80;;;;;;5095063;28;20043;-73
2022/04/26 14:06:42;;;;;;;5.57;2.50;;;13.70;64.30;;;;;;5113309;28;20073;-73
2022/04/26 14:09:08;;;;;;;5.88;2.47;;;13.60;64.10;;;;;;5078310;28;20052;-73
2022/04/26 14:11:34;;;;;;;5.53;2.50;;;13.50;66.20;;;;;;5094868;28;20078;-73
2022/04/26 14:22:12;;;;;;;2.63;2.35;;;13.10;65.90;;;;;;5112866;28;20527;-74
2022/04/26 14:24:38;;;;;;;7.38;2.83;;;13.00;67.00;;;;;;5113139;28;20075;-74
2022/04/26 14:27:05;;;;;;;4.00;2.55;;;12.90;67.30;;;;;;5094923;28;20051;-75
2022/04/26 14:29:30;;;;;;;5.43;3.00;;;12.90;68.70;;;;;;5112611;28;20039;-75
2022/04/26 14:31:56;;;;;;;6.00;2.60;;;12.90;70.00;;;;;;5094590;28;20050;-75
2022/04/26 14:34:22;;;;;;;6.28;2.70;;;12.80;69.50;;;;;;5094321;28;20083;-75
2022/04/26 14:36:48;;;;;;;7.28;2.75;;;12.70;70.00;;;;;;5094904;28;20082;-75
2022/04/26 14:39:15;;;;;;;6.38;2.90;;;12.70;70.40;;;;;;5094934;28;20056;-75
2022/04/26 14:41:41;;;;;;;4.82;2.75;;;12.60;69.90;;;;;;5112855;28;20131;-74
2022/04/26 14:44:07;;;;;;;3.60;2.40;;;12.50;70.50;;;;;;5094926;28;20399;-74
2022/04/26 14:46:35;;;;;;;6.50;2.53;;;12.50;71.20;;;;;;5112376;28;20127;-75
2022/04/26 14:49:06;;;;;;;5.03;2.50;;;12.40;72.60;;;;;;5078076;28;20039;-75
2022/04/26 14:51:32;;;;;;;4.25;2.70;;;12.40;74.10;;;;;;5094956;28;20043;-77
2022/04/26 14:53:57;;;;;;;6.10;2.50;;;12.40;73.40;;;;;;5112916;28;20048;-75
2022/04/26 14:56:23;;;;;;;4.22;2.47;;;12.40;73.30;;;;;;5096898;28;20055;-75
2022/04/26 14:58:49;;;;;;;6.43;2.80;;;12.50;74.00;;;;;;5117005;28;20042;-75
2022/04/26 15:01:18;;;;;;;6.32;2.53;;;12.40;72.30;;;;;;5116889;28;20051;-75
2022/04/26 15:03:44;;;;;;;9.75;2.50;;;12.50;71.60;;;;;;5098640;28;20400;-75
2022/04/26 15:06:13;;;;;;;5.00;2.50;;;12.50;73.10;;;;;;5116820;28;20077;-75
2022/04/26 15:11:23;;;;;;;4.30;2.50;;;12.60;71.70;;;;;;5116327;28;20112;-75
2022/04/26 15:16:39;;;;;;;4.43;2.30;;;12.90;70.60;;;;;;5100626;28;20056;-76
2022/04/26 15:19:09;;;;;;;7.75;2.42;;;13.00;70.60;;;;;;5116660;28;20043;-75
2022/04/26 15:21:35;;;;;;;6.70;2.40;;;13.10;69.40;;;;;;5097813;28;20487;-74
2022/04/26 15:24:06;;;;;;;5.63;2.50;;;13.20;69.50;;;;;;5116453;28;20449;-78
2022/04/26 15:26:34;;;;;;;6.22;2.30;;;13.30;67.40;;;;;;5097317;28;20091;-76
2022/04/26 15:28:59;;;;;;;4.07;2.33;;;13.20;66.50;;;;;;5081321;28;20134;-75
2022/04/26 15:31:26;;;;;;;6.95;2.90;;;13.20;65.50;;;;;;5097823;28;20143;-75
2022/04/26 15:33:52;;;;;;;4.25;2.42;;;13.20;65.00;;;;;;5116275;28;20047;-74
2022/04/26 15:36:18;;;;;;;5.18;2.20;;;13.10;64.90;;;;;;5081502;28;20108;-74
2022/04/26 15:38:45;;;;;;;6.43;2.55;;;13.10;65.50;;;;;;5115751;28;20051;-74
2022/04/26 15:41:11;;;;;;;5.38;2.50;;;13.10;65.40;;;;;;5116112;28;20047;-74
2022/04/26 15:43:37;;;;;;;9.05;2.80;;;13.10;66.40;;;;;;5097408;28;20369;-74
2022/04/26 15:46:03;;;;;;;5.13;2.30;;;13.10;65.80;;;;;;5097881;28;20550;-74
2022/04/26 15:48:29;;;;;;;6.35;2.38;;;13.20;65.10;;;;;;5097696;28;20165;-74
2022/04/26 15:50:55;;;;;;;4.60;2.42;;;13.20;64.20;;;;;;5097526;28;20039;-74
2022/04/26 15:53:21;;;;;;;4.78;2.53;;;13.10;63.20;;;;;;5097765;28;20047;-74
2022/04/26 15:55:47;;;;;;;5.45;2.20;;;13.00;62.60;;;;;;5097454;28;20138;-74
2022/04/26 15:58:13;;;;;;;5.75;2.60;;;13.00;63.60;;;;;;5097827;28;20130;-74
2022/04/26 16:00:38;;;;;;;8.88;2.22;;;12.90;64.20;;;;;;5097367;28;20467;-74
2022/04/26 16:03:04;;;;;;;5.47;2.55;;;12.80;63.30;;;;;;5080811;28;20051;-74
2022/04/26 16:05:30;;;;;;;6.10;2.38;;;12.70;63.90;;;;;;5115180;28;20039;-74
2022/04/26 16:07:56;;;;;;;7.45;2.70;;;12.70;64.70;;;;;;5097606;28;20047;-75
2022/04/26 16:21:22;;;;;;;8.30;3.15;;;12.50;67.30;;;;;;5100060;28;20047;-74
2022/04/26 16:23:48;;;;;;;8.45;2.75;;;12.50;67.20;;;;;;5114903;28;20047;-73
2022/04/26 16:26:15;;;;;;;5.07;2.28;;;12.50;67.90;;;;;;5097331;28;20048;-74
2022/04/26 16:28:40;;;;;;;7.63;2.50;;;12.50;67.70;;;;;;5080145;28;20051;-74
2022/04/26 16:31:06;;;;;;;10.27;3.45;;;12.40;68.30;;;;;;5096959;28;20043;-74
2022/04/26 16:33:32;;;;;;;6.65;2.80;;;12.40;68.40;;;;;;5114705;28;20066;-74
2022/04/26 16:35:57;;;;;;;5.88;2.80;;;12.40;68.40;;;;;;5096886;28;20043;-74
2022/04/26 16:38:23;;;;;;;5.18;2.58;;;12.30;67.20;;;;;;5080309;28;20465;-74
2022/04/26 16:40:49;;;;;;;7.53;3.97;;;12.20;66.70;;;;;;5114595;28;20078;-73
2022/04/26 16:43:16;;;;;;;5.22;2.97;;;12.20;68.90;;;;;;5115035;28;20433;-73
2022/04/26 16:45:49;;;;;;;7.38;2.78;;;12.20;69.10;;;;;;5096667;28;20055;-73
2022/04/26 16:48:14;;;;;;;4.55;2.30;;;12.10;69.60;;;;;;5096878;28;20377;-73
2022/04/26 16:50:40;;;;;;;7.10;2.53;;;12.00;69.50;;;;;;5114299;28;20127;-73
2022/04/26 16:53:06;;;;;;;5.53;2.55;;;11.90;69.20;;;;;;5079983;28;20042;-74
2022/04/26 16:55:32;;;;;;;5.50;2.90;;;11.90;69.50;;;;;;5096520;28;20130;-74
2022/04/26 16:57:58;;;;;;;6.10;2.55;;;11.80;69.40;;;;;;5096436;28;20043;-73
2022/04/26 17:00:24;;;;;;;6.50;2.50;;;11.70;69.00;;;;;;5096545;28;20040;-73
2022/04/26 17:02:50;;;;;;;2.90;2.60;;;11.70;68.60;;;;;;5095976;28;20047;-73
2022/04/26 17:05:18;;;;;;;7.43;2.55;;;11.60;69.80;;;;;;5114621;28;20044;-73
2022/04/26 17:07:48;;;;;;;8.15;2.75;;;11.50;69.50;;;;;;5114056;28;20039;-74
2022/04/26 17:10:14;;;;;;;8.55;3.05;;;11.50;69.50;;;;;;5096357;28;20086;-73